createdAt,value
2022-11-05T00:00:12.669Z,69.69
2022-11-05T00:02:59.307Z,70.06
2022-11-05T00:05:45.457Z,68.80
2022-11-05T00:08:33.977Z,67.79
2022-11-05T00:11:02.560Z,69.80
2022-11-05T00:13:49.233Z,69.29
2022-11-05T00:16:35.743Z,68.34
2022-11-05T00:19:07.106Z,68.37
2022-11-05T00:21:54.661Z,68.99
2022-11-05T00:24:42.753Z,69.44
2022-11-05T00:27:10.660Z,70.54
2022-11-05T00:29:38.760Z,70.53
2022-11-05T00:32:06.275Z,72.59
2022-11-05T00:34:34.558Z,71.43
2022-11-05T00:37:02.676Z,71.86
2022-11-05T00:39:31.165Z,72.16
2022-11-05T00:42:18.652Z,72.04
2022-11-05T00:45:02.288Z,71.48
2022-11-05T00:48:07.963Z,70.91
2022-11-05T00:50:37.305Z,71.19
2022-11-05T00:53:06.699Z,70.51
2022-11-05T00:55:40.196Z,71.06
2022-11-05T00:58:14.132Z,70.19
2022-11-05T01:00:48.677Z,70.67
2022-11-05T01:03:18.209Z,70.30
2022-11-05T01:05:48.879Z,70.88
2022-11-05T01:08:21.342Z,70.40
2022-11-05T01:10:52.062Z,70.36
2022-11-05T01:13:30.829Z,71.50
2022-11-05T01:15:58.420Z,70.33
2022-11-05T01:18:26.170Z,70.69
2022-11-05T01:20:54.107Z,70.03
2022-11-05T01:23:22.015Z,71.28
2022-11-05T01:25:51.781Z,71.76
2022-11-05T01:28:19.723Z,71.94
2022-11-05T01:30:55.570Z,71.59
2022-11-05T01:33:24.094Z,71.32
2022-11-05T01:35:51.868Z,70.78
2022-11-05T01:38:19.838Z,70.46
2022-11-05T01:40:47.724Z,71.22
2022-11-05T01:43:23.234Z,70.49
2022-11-05T01:45:54.392Z,69.79
2022-11-05T01:48:26.011Z,71.78
2022-11-05T01:50:57.921Z,71.45
2022-11-05T01:53:37.288Z,70.26
2022-11-05T01:56:17.091Z,71.00
2022-11-05T01:58:52.232Z,70.70
2022-11-05T02:01:20.658Z,71.20
2022-11-05T02:03:50.828Z,71.23
2022-11-05T02:06:19.821Z,70.81
2022-11-05T02:09:11.978Z,72.22
2022-11-05T02:11:45.126Z,70.71
2022-11-05T02:14:12.975Z,72.17
2022-11-05T02:16:50.031Z,70.95
2022-11-05T02:19:40.089Z,73.17
2022-11-05T02:22:10.438Z,73.77
2022-11-05T02:25:26.881Z,72.53
2022-11-05T02:28:21.294Z,71.81
2022-11-05T02:31:10.580Z,72.29
2022-11-05T02:33:56.772Z,72.36
2022-11-05T02:36:47.198Z,72.95
2022-11-05T02:39:25.088Z,73.55
2022-11-05T02:42:12.123Z,73.58
2022-11-05T02:44:45.899Z,72.90
2022-11-05T02:47:19.772Z,74.33
2022-11-05T02:50:09.332Z,72.81
2022-11-05T02:52:54.237Z,73.42
2022-11-05T02:55:38.601Z,71.99
2022-11-05T02:58:12.349Z,72.03
2022-11-05T03:00:53.224Z,72.51
2022-11-05T03:03:29.554Z,71.76
2022-11-05T03:06:39.276Z,71.66
2022-11-05T03:09:37.915Z,70.74
2022-11-05T03:12:26.196Z,71.99
2022-11-05T03:15:12.351Z,73.42
2022-11-05T03:17:58.433Z,72.44
2022-11-05T03:20:41.150Z,74.02
2022-11-05T03:23:11.567Z,73.23
2022-11-05T03:25:45.513Z,72.55
2022-11-05T03:28:14.853Z,71.74
2022-11-05T03:30:43.411Z,71.77
2022-11-05T03:33:18.788Z,69.92
2022-11-05T03:35:48.620Z,71.86
2022-11-05T03:38:24.063Z,72.57
2022-11-05T03:40:54.374Z,71.56
2022-11-05T03:43:24.965Z,72.81
2022-11-05T03:46:02.525Z,71.99
2022-11-05T03:48:32.012Z,71.71
2022-11-05T03:51:17.200Z,70.81
2022-11-05T03:53:50.637Z,72.14
2022-11-05T03:56:24.108Z,72.03
2022-11-05T03:58:57.608Z,72.85
2022-11-05T04:01:28.416Z,70.22
2022-11-05T04:03:57.212Z,71.02
2022-11-05T04:06:43.775Z,71.02
2022-11-05T04:09:32.362Z,72.87
2022-11-05T04:12:18.500Z,73.19
2022-11-05T04:14:46.246Z,72.06
2022-11-05T04:17:14.316Z,70.24
2022-11-05T04:20:02.253Z,71.95
2022-11-05T04:22:51.456Z,71.55
2022-11-05T04:25:20.382Z,71.93
2022-11-05T04:27:48.891Z,72.11
2022-11-05T04:30:21.865Z,72.45
2022-11-05T04:32:57.057Z,73.17
2022-11-05T04:35:26.173Z,71.37
2022-11-05T04:37:56.235Z,72.35
2022-11-05T04:40:26.153Z,73.17
2022-11-05T04:42:55.477Z,72.59
2022-11-05T04:45:25.708Z,71.19
2022-11-05T04:47:55.454Z,72.08
2022-11-05T04:50:23.776Z,71.01
2022-11-05T04:52:52.734Z,72.18
2022-11-05T04:55:20.789Z,71.57
2022-11-05T04:57:52.246Z,71.19
2022-11-05T05:00:21.853Z,72.69
2022-11-05T05:02:50.241Z,72.02
2022-11-05T05:05:21.350Z,72.28
2022-11-05T05:07:48.909Z,71.60
2022-11-05T05:10:16.788Z,72.87
2022-11-05T05:12:45.324Z,71.12
2022-11-05T05:15:13.257Z,72.06
2022-11-05T05:17:40.972Z,72.14
2022-11-05T05:20:27.790Z,72.85
2022-11-05T05:22:55.500Z,72.47
2022-11-05T05:25:24.257Z,70.69
2022-11-05T05:27:52.525Z,71.24
2022-11-05T05:30:20.729Z,70.91
2022-11-05T05:32:52.469Z,70.40
2022-11-05T05:35:21.675Z,69.44
2022-11-05T05:38:04.112Z,69.62
2022-11-05T05:40:32.625Z,70.18
2022-11-05T05:43:00.807Z,69.89
2022-11-05T05:45:28.681Z,69.72
2022-11-05T05:47:59.844Z,70.01
2022-11-05T05:50:27.735Z,69.36
2022-11-05T05:52:59.291Z,69.07
2022-11-05T05:55:31.313Z,71.96
2022-11-05T05:58:01.714Z,69.35
2022-11-05T06:00:33.537Z,70.15
2022-11-05T06:03:09.467Z,70.21
2022-11-05T06:05:44.212Z,68.88
2022-11-05T06:08:14.419Z,69.09
2022-11-05T06:10:48.542Z,68.47
2022-11-05T06:13:19.326Z,68.51
2022-11-05T06:15:47.152Z,70.97
2022-11-05T06:18:17.346Z,69.27
2022-11-05T06:20:47.483Z,68.55
2022-11-05T06:23:15.237Z,69.13
2022-11-05T06:25:44.050Z,68.52
2022-11-05T06:28:15.088Z,71.39
2022-11-05T06:30:43.988Z,69.72
2022-11-05T06:33:15.161Z,69.53
2022-11-05T06:35:44.950Z,68.06
2022-11-05T06:38:13.073Z,66.76
2022-11-05T06:40:43.354Z,68.23
2022-11-05T06:43:12.403Z,69.79
2022-11-05T06:45:40.460Z,69.21
2022-11-05T06:48:08.721Z,70.66
2022-11-05T06:50:38.523Z,69.91
2022-11-05T06:53:13.522Z,70.33
2022-11-05T06:55:48.020Z,69.44
2022-11-05T06:58:20.450Z,68.38
2022-11-05T07:00:51.157Z,69.98
2022-11-05T07:03:22.264Z,70.82
2022-11-05T07:05:51.428Z,69.12
2022-11-05T07:08:20.369Z,68.29
2022-11-05T07:11:00.196Z,68.05
2022-11-05T07:13:40.228Z,69.13
2022-11-05T07:16:09.594Z,67.41
2022-11-05T07:18:38.646Z,66.85
2022-11-05T07:21:11.294Z,68.82
2022-11-05T07:23:45.034Z,67.81
2022-11-05T07:26:17.635Z,68.99
2022-11-05T07:28:45.875Z,67.86
2022-11-05T07:31:17.290Z,69.37
2022-11-05T07:33:47.188Z,68.86
2022-11-05T07:36:15.133Z,69.98
2022-11-05T07:38:44.225Z,68.96
2022-11-05T07:41:14.407Z,67.74
2022-11-05T07:43:49.872Z,67.74
2022-11-05T07:46:20.469Z,67.00
2022-11-05T07:48:55.370Z,66.65
2022-11-05T07:51:28.128Z,68.90
2022-11-05T07:53:58.362Z,66.50
2022-11-05T07:56:32.222Z,68.52
2022-11-05T07:59:02.387Z,68.79
2022-11-05T08:01:32.722Z,65.77
2022-11-05T08:04:02.388Z,68.28
2022-11-05T08:06:37.211Z,66.55
2022-11-05T08:09:07.110Z,66.11
2022-11-05T08:11:38.360Z,67.22
2022-11-05T08:14:09.204Z,66.23
2022-11-05T08:16:39.391Z,66.12
2022-11-05T08:19:08.607Z,68.02
2022-11-05T08:21:37.212Z,66.58
2022-11-05T08:24:08.253Z,65.83
2022-11-05T08:26:44.186Z,67.88
2022-11-05T08:29:12.197Z,65.13
2022-11-05T08:31:40.294Z,65.95
2022-11-05T08:34:09.445Z,66.92
2022-11-05T08:36:42.095Z,66.68
2022-11-05T08:39:16.707Z,65.79
2022-11-05T08:41:48.181Z,66.42
2022-11-05T08:46:57.563Z,66.50
2022-11-05T08:49:26.466Z,67.22
2022-11-05T08:51:56.207Z,64.40
2022-11-05T08:54:32.112Z,66.69
2022-11-05T08:57:02.400Z,65.49
2022-11-05T08:59:31.848Z,64.31
2022-11-05T09:02:02.828Z,65.51
2022-11-05T09:04:38.183Z,63.02
2022-11-05T09:07:07.527Z,63.96
2022-11-05T09:09:36.962Z,63.46
2022-11-05T09:12:12.426Z,63.48
2022-11-05T09:14:45.334Z,64.04
2022-11-05T09:17:19.909Z,64.70
2022-11-05T09:19:50.294Z,63.05
2022-11-05T09:22:27.102Z,65.93
2022-11-05T09:24:58.201Z,62.98
2022-11-05T09:27:27.170Z,62.47
2022-11-05T09:30:03.078Z,63.16
2022-11-05T09:32:33.177Z,62.58
2022-11-05T09:35:09.196Z,64.93
2022-11-05T09:37:38.852Z,65.33
2022-11-05T09:40:14.300Z,62.69
2022-11-05T09:42:53.131Z,63.32
2022-11-05T09:45:27.269Z,62.86
2022-11-05T09:47:59.289Z,62.58
2022-11-05T09:50:42.075Z,60.97
2022-11-05T09:53:15.376Z,61.35
2022-11-05T09:55:49.496Z,62.95
2022-11-05T09:58:44.119Z,62.96
2022-11-05T10:01:23.250Z,60.89
2022-11-05T10:03:57.356Z,61.24
2022-11-05T10:06:27.115Z,61.84
2022-11-05T10:09:02.142Z,59.61
2022-11-05T10:11:41.517Z,59.81
2022-11-05T10:14:21.370Z,60.32
2022-11-05T10:16:59.610Z,59.65
2022-11-05T10:20:11.816Z,60.39
2022-11-05T10:22:49.675Z,63.43
2022-11-05T10:25:22.459Z,62.00
2022-11-05T10:27:58.204Z,62.40
2022-11-05T10:30:31.098Z,63.77
2022-11-05T10:33:07.226Z,60.83
2022-11-05T10:35:43.629Z,60.88
2022-11-05T10:38:23.279Z,60.17
2022-11-05T10:41:38.069Z,59.90
2022-11-05T10:44:32.148Z,61.14
2022-11-05T10:47:26.218Z,61.31
2022-11-05T10:50:06.170Z,62.16
2022-11-05T10:52:54.421Z,60.31
2022-11-05T10:55:32.105Z,61.44
2022-11-05T10:58:22.223Z,62.42
2022-11-05T11:00:53.933Z,62.52
2022-11-05T11:03:45.098Z,61.92
2022-11-05T11:06:24.546Z,60.85
2022-11-05T11:08:53.933Z,60.42
2022-11-05T11:11:35.982Z,60.57
2022-11-05T11:14:19.795Z,60.81
2022-11-05T11:16:59.390Z,61.47
2022-11-05T11:19:34.337Z,61.07
2022-11-05T11:22:05.857Z,59.97
2022-11-05T11:24:42.427Z,61.83
2022-11-05T11:27:23.029Z,62.11
2022-11-05T11:29:58.423Z,62.65
2022-11-05T11:32:43.095Z,62.31
2022-11-05T11:35:23.714Z,61.10
2022-11-05T11:37:54.369Z,63.54
2022-11-05T11:40:31.457Z,60.47
2022-11-05T11:43:02.118Z,59.67
2022-11-05T11:45:50.072Z,60.07
2022-11-05T11:48:30.392Z,61.40
2022-11-05T11:51:04.089Z,61.20
2022-11-05T11:53:47.285Z,62.50
2022-11-05T11:56:21.256Z,61.39
2022-11-05T11:58:57.389Z,62.28
2022-11-05T12:01:42.561Z,60.64
2022-11-05T12:04:34.540Z,62.35
2022-11-05T12:07:18.423Z,61.18
2022-11-05T12:10:02.246Z,61.60
2022-11-05T12:12:47.984Z,61.02
2022-11-05T12:15:43.088Z,59.95
2022-11-05T12:18:39.890Z,60.30
2022-11-05T12:21:41.078Z,61.86
2022-11-05T12:24:30.171Z,60.35
2022-11-05T12:27:24.038Z,59.65
2022-11-05T12:30:01.681Z,61.24
2022-11-05T12:32:59.631Z,59.90
2022-11-05T12:35:36.064Z,59.52
2022-11-05T12:38:20.905Z,60.27
2022-11-05T12:41:07.901Z,59.84
2022-11-05T12:44:19.373Z,60.26
2022-11-05T12:47:26.127Z,59.96
2022-11-05T12:50:09.074Z,58.51
2022-11-05T12:53:08.178Z,59.64
2022-11-05T12:55:47.092Z,59.07
2022-11-05T12:58:28.318Z,59.35
2022-11-05T13:01:07.221Z,59.31
2022-11-05T13:03:54.225Z,59.97
2022-11-05T13:06:34.285Z,60.97
2022-11-05T13:09:13.252Z,59.14
2022-11-05T13:11:47.905Z,58.33
2022-11-05T13:14:49.352Z,58.19
2022-11-05T13:17:26.268Z,59.74
2022-11-05T13:20:20.108Z,58.80
2022-11-05T13:23:07.289Z,59.56
2022-11-05T13:25:47.120Z,58.67
2022-11-05T13:28:39.883Z,57.66
2022-11-05T13:31:15.624Z,59.24
2022-11-05T13:33:47.292Z,59.09
2022-11-05T13:36:51.098Z,58.19
2022-11-05T13:39:51.002Z,57.66
2022-11-05T13:42:36.229Z,57.98
2022-11-05T13:45:43.309Z,59.15
2022-11-05T13:48:35.077Z,59.06
2022-11-05T13:51:10.146Z,60.71
2022-11-05T13:54:08.217Z,60.42
2022-11-05T13:56:53.292Z,60.96
2022-11-05T13:59:52.373Z,61.05
2022-11-05T14:02:26.714Z,59.88
2022-11-05T14:05:01.280Z,60.94
2022-11-05T14:07:38.366Z,60.48
2022-11-05T14:10:28.148Z,60.69
2022-11-05T14:13:01.293Z,59.49
2022-11-05T14:15:40.747Z,59.98
2022-11-05T14:18:40.245Z,59.20
2022-11-05T14:21:26.455Z,60.34
2022-11-05T14:23:59.075Z,61.49
2022-11-05T14:26:30.914Z,60.21
2022-11-05T14:29:06.357Z,61.18
2022-11-05T14:32:11.538Z,61.44
2022-11-05T14:35:17.964Z,61.19
2022-11-05T14:37:52.984Z,62.23
2022-11-05T14:40:38.951Z,61.29
2022-11-05T14:43:24.879Z,61.60
2022-11-05T14:46:07.281Z,61.04
2022-11-05T14:48:46.077Z,62.07
2022-11-05T14:54:42.400Z,61.03
2022-11-05T14:57:16.328Z,61.78
2022-11-05T14:59:58.105Z,61.76
2022-11-05T15:02:39.532Z,60.66
2022-11-05T15:05:40.628Z,59.62
2022-11-05T15:08:28.067Z,59.37
2022-11-05T15:11:17.471Z,59.62
2022-11-05T15:13:58.900Z,59.52
2022-11-05T15:16:32.113Z,60.46
2022-11-05T15:19:22.040Z,59.69
2022-11-05T15:21:53.638Z,60.23
2022-11-05T15:24:33.054Z,59.94
2022-11-05T15:27:07.037Z,60.75
2022-11-05T15:29:36.093Z,61.27
2022-11-05T15:32:06.474Z,61.45
2022-11-05T15:34:35.925Z,60.29
2022-11-05T15:37:16.210Z,60.73
2022-11-05T15:39:50.073Z,61.60
2022-11-05T15:42:25.873Z,60.66
2022-11-05T15:44:56.392Z,60.31
2022-11-05T15:47:28.825Z,60.75
2022-11-05T15:50:10.020Z,60.01
2022-11-05T15:52:54.095Z,59.96
2022-11-05T15:55:27.463Z,60.94
2022-11-05T15:58:08.130Z,61.66
2022-11-05T16:03:22.476Z,61.64
2022-11-05T16:05:51.992Z,61.59
2022-11-05T16:08:29.220Z,60.33
2022-11-05T16:11:03.275Z,62.55
2022-11-05T16:13:37.125Z,62.36
2022-11-05T16:16:21.298Z,62.84
2022-11-05T16:18:49.605Z,61.97
2022-11-05T16:21:30.301Z,62.71
2022-11-05T16:24:00.649Z,62.62
2022-11-05T16:29:39.246Z,64.48
2022-11-05T16:37:36.024Z,64.07
2022-11-05T16:40:16.492Z,63.83
2022-11-05T16:42:54.574Z,63.83
2022-11-05T16:45:27.078Z,63.65
2022-11-05T16:48:00.197Z,63.28
2022-11-05T16:50:39.143Z,63.55
2022-11-05T16:58:27.782Z,64.43
2022-11-05T17:01:10.665Z,64.93
2022-11-05T17:03:44.551Z,63.78
2022-11-05T17:06:16.142Z,64.84
2022-11-05T17:08:51.311Z,65.21
2022-11-05T17:11:21.767Z,65.86
2022-11-05T17:14:00.857Z,64.63
2022-11-05T17:16:48.113Z,65.16
2022-11-05T17:19:20.203Z,65.01
2022-11-05T17:21:53.101Z,64.71
2022-11-05T17:24:25.192Z,64.62
2022-11-05T17:27:02.069Z,65.03
2022-11-05T17:29:31.879Z,65.38
2022-11-05T17:32:10.560Z,65.35
2022-11-05T17:34:40.675Z,65.86
2022-11-05T17:37:13.558Z,66.09
2022-11-05T17:39:45.693Z,66.62
2022-11-05T17:42:18.131Z,66.55
2022-11-05T17:47:28.097Z,66.64
2022-11-05T17:49:57.377Z,68.00
2022-11-05T17:52:28.278Z,68.38
2022-11-05T17:54:55.927Z,66.36
2022-11-05T17:57:25.057Z,67.09
2022-11-05T17:59:53.221Z,67.85
2022-11-05T18:02:22.187Z,67.81
2022-11-05T18:04:50.291Z,67.64
2022-11-05T18:07:23.108Z,66.46
2022-11-05T18:10:03.539Z,66.78
2022-11-05T18:12:38.886Z,67.62
2022-11-05T18:15:16.261Z,68.02
2022-11-05T18:17:56.052Z,67.95
2022-11-05T18:20:25.695Z,67.65
2022-11-05T18:22:56.073Z,67.34
2022-11-05T18:25:28.213Z,68.06
2022-11-05T18:27:58.510Z,67.44
2022-11-05T18:30:32.045Z,67.73
2022-11-05T18:33:03.022Z,66.97
2022-11-05T18:35:33.140Z,67.99
2022-11-05T18:38:15.338Z,67.32
2022-11-05T18:40:45.500Z,67.00
2022-11-05T18:43:14.213Z,67.46
2022-11-05T18:45:43.650Z,67.00
2022-11-05T18:48:28.310Z,67.90
2022-11-05T18:51:01.849Z,67.37
2022-11-05T18:53:41.215Z,67.04
2022-11-05T18:56:36.080Z,67.75
2022-11-05T19:01:58.759Z,67.48
2022-11-05T19:04:28.510Z,67.99
2022-11-05T19:07:13.069Z,67.99
2022-11-05T19:09:50.133Z,67.44
2022-11-05T19:12:26.500Z,67.41
2022-11-05T19:15:02.135Z,67.75
2022-11-05T19:17:34.664Z,69.17
2022-11-05T19:20:26.127Z,68.22
2022-11-05T19:23:12.551Z,68.42
2022-11-05T19:28:22.239Z,67.10
2022-11-05T19:30:54.012Z,67.69
2022-11-05T19:33:24.425Z,67.82
2022-11-05T19:35:52.637Z,67.70
2022-11-05T19:38:24.092Z,68.22
2022-11-05T19:40:53.153Z,68.43
2022-11-05T19:43:26.469Z,67.17
2022-11-05T19:45:58.185Z,67.68
2022-11-05T19:48:34.263Z,67.76
2022-11-05T19:51:07.339Z,67.36
2022-11-05T19:53:42.084Z,67.42
2022-11-05T19:56:31.266Z,67.59
2022-11-05T19:59:08.110Z,68.88
2022-11-05T20:01:45.314Z,68.44
2022-11-05T20:04:14.244Z,68.30
2022-11-05T20:06:44.562Z,69.42
2022-11-05T20:09:22.512Z,68.32
2022-11-05T20:11:54.649Z,67.71
2022-11-05T20:14:26.040Z,68.81
2022-11-05T20:16:55.189Z,67.78
2022-11-05T20:19:56.322Z,67.33
2022-11-05T20:22:26.292Z,67.99
2022-11-05T20:24:56.552Z,68.27
2022-11-05T20:27:42.929Z,67.62
2022-11-05T20:32:58.007Z,68.48
2022-11-05T20:35:44.122Z,68.10
2022-11-05T20:38:16.849Z,67.66
2022-11-05T20:40:46.734Z,68.79
2022-11-05T20:43:24.750Z,68.31
2022-11-05T20:46:04.538Z,68.73
2022-11-05T20:48:35.392Z,67.33
2022-11-05T20:51:09.167Z,68.00
2022-11-05T20:54:01.333Z,68.49
2022-11-05T20:56:38.089Z,68.02
2022-11-05T20:59:06.887Z,69.28
2022-11-05T21:01:47.125Z,68.38
2022-11-05T21:04:15.311Z,68.95
2022-11-05T21:06:44.498Z,68.95
2022-11-05T21:09:13.027Z,69.14
2022-11-05T21:14:35.852Z,69.36
2022-11-05T21:17:10.255Z,69.10
2022-11-05T21:19:43.046Z,68.07
2022-11-05T21:22:19.217Z,68.45
2022-11-05T21:24:52.019Z,68.68
2022-11-05T21:27:20.063Z,68.89
2022-11-05T21:29:57.164Z,69.60
2022-11-05T21:32:27.088Z,69.40
2022-11-05T21:34:57.073Z,69.70
2022-11-05T21:37:26.045Z,69.14
2022-11-05T21:39:56.096Z,69.46
2022-11-05T21:42:34.030Z,68.61
2022-11-05T21:45:02.916Z,68.67
2022-11-05T21:47:33.516Z,68.65
2022-11-05T21:50:03.289Z,69.20
2022-11-05T21:52:50.072Z,68.81
2022-11-05T21:55:24.138Z,68.46
2022-11-05T21:58:13.189Z,68.68
2022-11-05T22:00:43.297Z,69.24
2022-11-05T22:03:18.318Z,68.13
2022-11-05T22:05:51.717Z,69.00
2022-11-05T22:08:24.046Z,67.99
2022-11-05T22:10:53.156Z,68.13
2022-11-05T22:13:23.729Z,68.46
2022-11-05T22:15:57.181Z,69.74
2022-11-05T22:18:26.540Z,68.10
2022-11-05T22:20:56.264Z,67.42
2022-11-05T22:23:31.459Z,67.71
2022-11-05T22:26:00.811Z,68.75
2022-11-05T22:28:30.103Z,68.97
2022-11-05T22:30:58.342Z,69.30
2022-11-05T22:33:28.089Z,68.90
2022-11-05T22:35:58.358Z,68.94
2022-11-05T22:38:30.951Z,69.45
2022-11-05T22:41:13.087Z,69.19
2022-11-05T22:43:43.297Z,68.72
2022-11-05T22:46:37.790Z,67.64
2022-11-05T22:49:07.472Z,68.73
2022-11-05T22:51:36.959Z,68.66
2022-11-05T22:54:08.948Z,68.19
2022-11-05T22:56:39.977Z,67.58
2022-11-05T22:59:14.356Z,68.55
2022-11-05T23:02:12.400Z,67.18
2022-11-05T23:04:52.080Z,67.99
2022-11-05T23:08:15.854Z,68.29
2022-11-05T23:11:17.096Z,67.64
2022-11-05T23:14:09.951Z,68.36
2022-11-05T23:17:36.660Z,67.38
2022-11-05T23:21:17.963Z,67.79
2022-11-05T23:24:06.377Z,67.19
2022-11-05T23:26:54.495Z,67.34
2022-11-05T23:29:25.157Z,68.10
2022-11-05T23:32:14.716Z,68.19
2022-11-05T23:34:43.525Z,67.29
2022-11-05T23:37:49.915Z,67.73
2022-11-05T23:40:20.695Z,67.02
2022-11-05T23:45:48.378Z,67.75
2022-11-05T23:48:37.267Z,68.39
2022-11-05T23:51:27.602Z,67.79
2022-11-05T23:54:14.384Z,67.14
2022-11-05T23:56:58.314Z,66.84
2022-11-05T23:59:38.204Z,67.61
